Messwerte Suhar

Temperatur

Temperatur
°C
1617962400 14.00 14.00
1617966000 15.00 15.00 31
1617969600 16.00 16.00 31
1617973200 17.00 17.00
1617976800 18.00 18.00
1617980400 19.00 19.00 31
1617984000 20.00 20.00 31
1617987600 21.00 21.00 29
1617991200 22.00 22.00
1617994800 23.00 23.00
1617998400 0.00 0.00 26
1618002000 1.00 1.00 26
1618005600 2.00 2.00 25
1618009200 3.00 3.00 25
1618012800 4.00 4.00 25
1618016400 5.00 5.00
1618020000 6.00 6.00 26
1618023600 7.00 7.00
1618027200 8.00 8.00 27
1618030800 9.00 9.00 28
1618034400 10.00 10.00 30
1618038000 11.00 11.00 31
1618041600 12.00 12.00 31
1618045200 13.00 13.00 31

Aktuellste Messwerte

Temperatur
31 °C
Feuchtigkeit
55 %
Wind
25 km/hWindrichtung: Nordost
Luftdruck
1008 hPa
Messzeit: 10. April 2021, 15.00Datenquelle: METAR

Weitere Messstationen in der Nähe

Messstation Temperatur Entfernung
Fujairah 30 °C 76 km
Al Ain 38 °C 107 km
Ras Al Khaimah 37 °C 146 km
Schardscha 35 °C 147 km
Dubai 36 °C 157 km
Jask 28 °C 173 km
Maskat 30 °C 194 km

Wind

Windrichtung Böen Mittelwind
° km/h km/h
1617962400 14.00 13.00 - 14.00
1617966000 15.00 14.00 - 15.00 70° 20
1617969600 16.00 15.00 - 16.00 80° 10
1617973200 17.00 16.00 - 17.00
1617976800 18.00 17.00 - 18.00
1617980400 19.00 18.00 - 19.00 120° 10
1617984000 20.00 19.00 - 20.00 110° 5
1617987600 21.00 20.00 - 21.00 80° 5
1617991200 22.00 21.00 - 22.00
1617994800 23.00 22.00 - 23.00
1617998400 0.00 23.00 - 0.00 90° 10
1618002000 1.00 0.00 - 1.00 100° 5
1618005600 2.00 1.00 - 2.00 0
1618009200 3.00 2.00 - 3.00 270° 5
1618012800 4.00 3.00 - 4.00 270° 5
1618016400 5.00 4.00 - 5.00
1618020000 6.00 5.00 - 6.00 290° 5
1618023600 7.00 6.00 - 7.00
1618027200 8.00 7.00 - 8.00 5
1618030800 9.00 8.00 - 9.00 5
1618034400 10.00 9.00 - 10.00 5
1618038000 11.00 10.00 - 11.00 50° 10
1618041600 12.00 11.00 - 12.00 40° 15
1618045200 13.00 12.00 - 13.00 40° 20

Ihre Wetterstation

Fehlt Ihre Wetterstation auf unserem Portal?

Schreiben Sie an network@meteonews.ch

Klima

Wann ist es am wärmsten? Wann regnet es am wenigsten? Unsere Klimadaten geben Auskunft.